Time;durP1;ratioP1;P1;durP2;ratioP2;P2;SDS_P1;SDS_P2;PMS_P1;PMS_P2;Temp;Humidity;BMP_temperature;BMP_pressure;BME280_temperature;BME280_humidity;BME280_pressure;Samples;Min_cycle;Max_cycle;Signal;HPM_P1;HPM_P2
2022/06/04 00:00:38;;;;;;;2.78;2.20;;;15.40;99.90;;;;;;5003194;28;20087;-77
2022/06/04 00:03:05;;;;;;;2.45;2.25;;;15.50;99.90;;;;;;5006741;28;20142;-75
2022/06/04 00:05:35;;;;;;;3.10;2.17;;;15.60;99.90;;;;;;5007771;28;20040;-76
2022/06/04 00:08:03;;;;;;;3.67;1.85;;;15.60;99.90;;;;;;5011673;28;20038;-75
2022/06/04 00:16:04;;;;;;;13.32;1.88;;;15.10;99.90;;;;;;5001137;28;20130;-75
2022/06/04 00:18:30;;;;;;;6.53;2.40;;;14.60;99.90;;;;;;5007311;28;20090;-76
2022/06/04 00:20:56;;;;;;;11.20;2.55;;;14.20;99.90;;;;;;5008629;28;20072;-75
2022/06/04 00:23:23;;;;;;;24.95;3.95;;;14.00;99.90;;;;;;4986304;28;20446;-76
2022/06/04 00:25:51;;;;;;;4.38;2.33;;;13.90;99.90;;;;;;5006159;28;20033;-75
2022/06/04 00:28:20;;;;;;;4.32;2.20;;;14.10;99.90;;;;;;5001363;28;20592;-76
2022/06/04 00:30:46;;;;;;;4.03;2.20;;;14.20;99.90;;;;;;5001435;28;20078;-76
2022/06/04 00:33:13;;;;;;;2.33;1.95;;;14.20;99.90;;;;;;5007070;28;20030;-76
2022/06/04 00:35:40;;;;;;;2.45;1.80;;;14.40;99.90;;;;;;5000316;28;20528;-75
2022/06/04 00:38:07;;;;;;;2.20;2.00;;;14.50;99.90;;;;;;5005306;28;20037;-75
2022/06/04 00:41:07;;;;;;;2.65;2.25;;;14.70;99.90;;;;;;5002004;28;20104;-75
2022/06/04 00:43:56;;;;;;;2.85;2.50;;;14.80;99.90;;;;;;5003967;28;20121;-75
2022/06/04 00:46:30;;;;;;;3.30;2.40;;;14.80;99.90;;;;;;5008426;28;20037;-75
2022/06/04 00:48:56;;;;;;;3.00;2.67;;;14.90;99.90;;;;;;5002671;28;20049;-75
2022/06/04 00:51:23;;;;;;;2.78;2.50;;;14.90;99.90;;;;;;5004431;28;20030;-75
2022/06/04 00:53:49;;;;;;;4.63;2.55;;;14.80;99.90;;;;;;5006365;28;20053;-75
2022/06/04 00:56:39;;;;;;;3.13;2.38;;;14.70;99.90;;;;;;5003935;28;20037;-75
2022/06/04 00:59:20;;;;;;;4.45;2.50;;;14.70;99.90;;;;;;5000099;28;20089;-76
2022/06/04 01:02:00;;;;;;;3.08;2.60;;;14.70;99.90;;;;;;4999185;28;20224;-75
2022/06/04 01:05:03;;;;;;;7.13;2.65;;;14.70;99.90;;;;;;5001983;28;20021;-76
2022/06/04 01:07:35;;;;;;;5.47;3.05;;;14.70;99.90;;;;;;5004349;28;20065;-75
2022/06/04 01:10:07;;;;;;;13.07;3.63;;;14.70;99.90;;;;;;5000667;28;21154;-76
2022/06/04 01:13:01;;;;;;;7.00;3.33;;;14.80;99.90;;;;;;5004212;28;20038;-76
2022/06/04 01:15:32;;;;;;;12.50;3.65;;;14.80;99.90;;;;;;4993923;28;20049;-76
2022/06/04 01:18:03;;;;;;;7.20;3.80;;;14.70;99.90;;;;;;5003844;28;20554;-76
2022/06/04 01:20:40;;;;;;;15.20;3.97;;;14.60;99.90;;;;;;5006795;28;20038;-75
2022/06/04 01:23:26;;;;;;;5.65;3.55;;;14.60;99.90;;;;;;4999745;28;20513;-76
2022/06/04 01:26:15;;;;;;;3.28;2.97;;;14.50;99.90;;;;;;5000746;28;20029;-75
2022/06/04 01:28:46;;;;;;;3.20;2.70;;;14.70;99.90;;;;;;5004233;28;20030;-75
2022/06/04 01:31:23;;;;;;;8.32;2.85;;;14.80;99.90;;;;;;4997366;28;20444;-76
2022/06/04 01:33:56;;;;;;;4.25;2.30;;;14.90;99.90;;;;;;5003235;28;20120;-76
2022/06/04 01:36:32;;;;;;;7.60;2.38;;;14.90;99.90;;;;;;5002468;28;20108;-76
2022/06/04 01:39:15;;;;;;;2.60;2.40;;;15.00;99.90;;;;;;4998669;28;20112;-75
2022/06/04 01:41:53;;;;;;;3.35;2.33;;;15.00;99.90;;;;;;5000962;28;20029;-75
2022/06/04 01:44:36;;;;;;;3.88;2.53;;;15.00;99.90;;;;;;5004703;28;20029;-75
2022/06/04 01:47:06;;;;;;;2.38;2.17;;;15.00;99.90;;;;;;5004135;28;20636;-76
2022/06/04 01:49:43;;;;;;;3.47;2.33;;;15.10;99.90;;;;;;5009752;28;20037;-75
2022/06/04 01:52:15;;;;;;;4.57;2.65;;;15.10;99.90;;;;;;5005551;28;20026;-76
2022/06/04 01:54:52;;;;;;;3.28;2.63;;;14.90;99.90;;;;;;5001047;28;20045;-75
2022/06/04 01:57:32;;;;;;;3.25;2.58;;;14.90;99.90;;;;;;5006249;28;20095;-76
2022/06/04 02:00:03;;;;;;;3.00;2.70;;;14.90;99.90;;;;;;5004206;28;20034;-76
2022/06/04 02:02:52;;;;;;;2.50;2.30;;;14.90;99.90;;;;;;4996110;28;20049;-75
2022/06/04 02:05:24;;;;;;;3.40;2.70;;;15.00;99.90;;;;;;4995408;28;20042;-75
2022/06/04 02:07:52;;;;;;;4.35;2.60;;;15.00;99.90;;;;;;5009261;28;20032;-75
2022/06/04 02:10:29;;;;;;;4.38;2.80;;;15.00;99.90;;;;;;4998880;28;20061;-76
2022/06/04 02:12:59;;;;;;;8.57;3.10;;;15.00;99.90;;;;;;5003436;28;20037;-76
2022/06/04 02:15:30;;;;;;;15.77;4.93;;;15.00;99.90;;;;;;5006311;28;20037;-76
2022/06/04 02:17:58;;;;;;;3.40;2.67;;;14.80;99.90;;;;;;5009024;28;20052;-76
2022/06/04 02:20:25;;;;;;;2.63;2.42;;;14.70;99.90;;;;;;4999753;28;20069;-76
2022/06/04 02:22:51;;;;;;;5.53;2.78;;;14.80;99.90;;;;;;5003263;28;20053;-76
2022/06/04 02:25:17;;;;;;;3.28;2.97;;;14.70;99.90;;;;;;5003534;28;20113;-76
2022/06/04 02:27:43;;;;;;;2.72;2.38;;;14.80;99.90;;;;;;5003937;28;20188;-76
2022/06/04 02:30:12;;;;;;;3.00;2.50;;;14.80;99.90;;;;;;4989339;28;20037;-76
2022/06/04 02:33:03;;;;;;;3.60;2.67;;;14.80;99.90;;;;;;4997438;28;20042;-75
2022/06/04 02:35:28;;;;;;;3.45;2.70;;;14.70;99.90;;;;;;5006596;28;20050;-75
2022/06/04 02:38:02;;;;;;;2.65;2.45;;;14.60;99.90;;;;;;5009237;28;20042;-75
2022/06/04 02:40:41;;;;;;;3.22;2.80;;;14.70;99.90;;;;;;5003928;28;20061;-76
2022/06/04 02:43:34;;;;;;;3.95;2.15;;;14.70;99.90;;;;;;5005171;28;20029;-75
2022/06/04 02:46:20;;;;;;;3.13;2.53;;;14.80;99.90;;;;;;4997435;28;20081;-76
2022/06/04 02:49:05;;;;;;;3.42;2.55;;;14.70;99.90;;;;;;5000459;28;20026;-75
2022/06/04 02:51:42;;;;;;;50.03;5.63;;;14.80;99.90;;;;;;5002982;28;20042;-76
2022/06/04 02:54:18;;;;;;;5.13;3.10;;;14.70;99.90;;;;;;4987539;28;20042;-75
2022/06/04 02:56:46;;;;;;;5.65;2.55;;;14.60;99.90;;;;;;4996956;28;20046;-76
2022/06/04 02:59:14;;;;;;;30.10;4.03;;;14.60;99.90;;;;;;5003708;28;20030;-76
2022/06/04 03:01:42;;;;;;;2.70;2.50;;;14.50;99.90;;;;;;4996995;28;20043;-76
2022/06/04 03:04:09;;;;;;;2.45;2.25;;;14.60;99.90;;;;;;5000755;28;20050;-76
2022/06/04 03:06:36;;;;;;;3.45;2.90;;;14.60;99.90;;;;;;4997402;28;20034;-76
2022/06/04 03:09:05;;;;;;;2.85;2.65;;;14.70;99.90;;;;;;5000196;28;20478;-76
2022/06/04 03:11:43;;;;;;;3.78;2.70;;;14.70;99.90;;;;;;5000917;28;20117;-76
2022/06/04 03:14:09;;;;;;;3.20;2.50;;;14.70;99.90;;;;;;5004467;28;20062;-75
2022/06/04 03:16:38;;;;;;;2.63;2.40;;;14.70;99.90;;;;;;5005117;28;20665;-76
2022/06/04 03:19:07;;;;;;;3.33;3.03;;;14.70;99.90;;;;;;5005362;28;20082;-75
2022/06/04 03:21:34;;;;;;;5.00;2.90;;;14.70;99.90;;;;;;5007775;28;20044;-76
2022/06/04 03:23:59;;;;;;;2.72;2.47;;;14.70;99.90;;;;;;5002290;28;20029;-76
2022/06/04 03:26:25;;;;;;;3.75;2.58;;;14.60;99.90;;;;;;5006162;28;20491;-76
2022/06/04 03:28:51;;;;;;;3.05;2.38;;;14.60;99.90;;;;;;5005166;28;20121;-75
2022/06/04 03:31:16;;;;;;;3.50;2.83;;;14.70;99.90;;;;;;5003122;28;20579;-76
2022/06/04 03:33:42;;;;;;;6.50;3.22;;;14.70;99.90;;;;;;5004370;28;20041;-76
2022/06/04 03:36:11;;;;;;;3.03;2.60;;;14.80;99.90;;;;;;5006925;28;20038;-75
2022/06/04 03:38:37;;;;;;;2.70;2.50;;;14.70;99.90;;;;;;5002816;28;20041;-76
2022/06/04 03:41:03;;;;;;;2.50;2.30;;;14.70;99.90;;;;;;5006972;28;20048;-76
2022/06/04 03:43:29;;;;;;;11.38;4.80;;;14.70;99.90;;;;;;5013637;28;20060;-76
2022/06/04 03:45:55;;;;;;;9.45;2.60;;;14.60;99.90;;;;;;5006846;28;20118;-76
2022/06/04 03:48:22;;;;;;;6.05;3.00;;;14.10;99.90;;;;;;5004905;28;20057;-76
2022/06/04 03:50:48;;;;;;;8.98;3.00;;;13.90;99.90;;;;;;5008519;28;20077;-76
2022/06/04 03:53:14;;;;;;;10.32;3.45;;;13.90;99.90;;;;;;5006280;28;20045;-75
2022/06/04 03:55:40;;;;;;;3.25;2.78;;;13.90;99.90;;;;;;5006414;28;20034;-76
2022/06/04 03:58:06;;;;;;;3.97;2.72;;;13.90;99.90;;;;;;5005566;28;20041;-76
2022/06/04 04:00:38;;;;;;;3.50;3.20;;;13.80;99.90;;;;;;5009447;28;20610;-76
2022/06/04 04:03:10;;;;;;;2.95;2.60;;;13.70;99.90;;;;;;5004424;28;20050;-76
2022/06/04 04:05:41;;;;;;;3.95;2.63;;;13.70;99.90;;;;;;5002892;28;20034;-76
2022/06/04 04:08:09;;;;;;;3.85;2.85;;;13.60;99.90;;;;;;4987637;28;20228;-76
2022/06/04 04:10:37;;;;;;;2.88;2.42;;;13.50;99.90;;;;;;5004380;28;20030;-77
2022/06/04 04:13:03;;;;;;;4.43;2.78;;;13.50;99.90;;;;;;4991659;28;20045;-76
2022/06/04 04:15:29;;;;;;;3.97;2.40;;;13.60;99.90;;;;;;5002998;28;20036;-76
2022/06/04 04:17:55;;;;;;;3.55;3.00;;;13.70;99.90;;;;;;5006400;28;20085;-76
2022/06/04 04:20:24;;;;;;;3.85;2.63;;;13.70;99.90;;;;;;4990255;28;20362;-76
2022/06/04 04:22:50;;;;;;;4.75;2.58;;;13.80;99.90;;;;;;5006980;28;20034;-76
2022/06/04 04:25:18;;;;;;;4.30;2.95;;;13.90;99.90;;;;;;4985422;28;20045;-76
2022/06/04 04:27:45;;;;;;;5.00;2.42;;;14.00;99.90;;;;;;5009011;28;20032;-77
2022/06/04 04:30:14;;;;;;;5.28;2.90;;;14.00;99.90;;;;;;5003077;28;20032;-76
2022/06/04 04:32:40;;;;;;;3.10;2.80;;;14.10;99.90;;;;;;4986572;28;20386;-76
2022/06/04 04:35:09;;;;;;;4.85;2.63;;;14.20;99.90;;;;;;5004535;28;20537;-76
2022/06/04 04:37:34;;;;;;;3.20;2.67;;;14.30;99.90;;;;;;5006709;28;20507;-76
2022/06/04 04:40:00;;;;;;;2.83;2.53;;;14.40;99.90;;;;;;5005545;28;20112;-76
2022/06/04 04:42:26;;;;;;;3.17;2.65;;;14.40;99.90;;;;;;5008405;28;20462;-76
2022/06/04 04:44:51;;;;;;;2.97;2.65;;;14.40;99.90;;;;;;5003508;28;21146;-77
2022/06/04 04:47:17;;;;;;;3.10;2.80;;;14.50;99.90;;;;;;5006105;28;20030;-76
2022/06/04 04:49:43;;;;;;;3.95;2.88;;;14.40;99.90;;;;;;5006139;28;20022;-77
2022/06/04 04:52:09;;;;;;;3.53;2.78;;;14.50;99.90;;;;;;5007842;28;20040;-76
2022/06/04 04:54:35;;;;;;;3.28;2.85;;;14.60;99.90;;;;;;5004528;28;20039;-76
2022/06/04 04:57:01;;;;;;;4.43;3.60;;;14.60;99.90;;;;;;5006979;28;20053;-76
2022/06/04 04:59:27;;;;;;;4.40;2.85;;;14.60;99.90;;;;;;5007032;28;20034;-75
2022/06/04 05:01:53;;;;;;;3.10;2.80;;;14.80;99.90;;;;;;5004434;28;20085;-75
2022/06/04 05:04:19;;;;;;;3.72;3.10;;;15.00;99.90;;;;;;4988018;28;20112;-75
2022/06/04 05:06:44;;;;;;;4.00;3.45;;;15.30;99.90;;;;;;5003567;28;20045;-76
2022/06/04 05:09:11;;;;;;;4.13;3.33;;;15.40;99.90;;;;;;4983035;28;20037;-76
2022/06/04 05:11:37;;;;;;;4.78;3.20;;;15.50;99.90;;;;;;5008312;28;20144;-75
2022/06/04 05:14:03;;;;;;;3.20;2.90;;;15.60;99.90;;;;;;5003839;28;20034;-76
2022/06/04 05:16:33;;;;;;;3.80;3.17;;;15.50;99.90;;;;;;5005802;28;20045;-76
2022/06/04 05:19:01;;;;;;;3.80;2.95;;;15.40;99.90;;;;;;5005136;28;20485;-76
2022/06/04 05:21:43;;;;;;;4.55;3.20;;;15.40;99.90;;;;;;4988725;28;20030;-76
2022/06/04 05:24:21;;;;;;;5.80;3.20;;;15.20;99.90;;;;;;5007883;28;20095;-76
2022/06/04 05:26:47;;;;;;;3.75;3.33;;;15.20;99.90;;;;;;4992121;28;20033;-76
2022/06/04 05:29:13;;;;;;;5.78;3.10;;;15.30;99.90;;;;;;5010777;28;20499;-77
2022/06/04 05:31:39;;;;;;;3.95;3.30;;;15.40;99.90;;;;;;5001382;28;20050;-77
2022/06/04 05:34:09;;;;;;;3.28;2.97;;;15.20;99.90;;;;;;5011502;28;20026;-77
2022/06/04 05:36:36;;;;;;;3.70;3.00;;;15.20;99.90;;;;;;4983791;28;20121;-76
2022/06/04 05:39:03;;;;;;;3.88;3.20;;;15.20;99.90;;;;;;5007224;28;20022;-76
2022/06/04 05:41:29;;;;;;;3.53;3.17;;;15.40;99.90;;;;;;5005429;28;20069;-77
2022/06/04 05:43:55;;;;;;;3.85;3.50;;;15.60;99.90;;;;;;4986390;28;21624;-76
2022/06/04 05:46:22;;;;;;;3.90;3.35;;;15.60;99.90;;;;;;5000031;28;20117;-76
2022/06/04 05:48:48;;;;;;;4.00;3.35;;;15.70;99.90;;;;;;4989996;28;20528;-76
2022/06/04 05:51:17;;;;;;;4.75;3.42;;;15.80;99.90;;;;;;5009562;28;20041;-77
2022/06/04 05:53:43;;;;;;;2.90;2.70;;;15.80;99.90;;;;;;5007753;28;20053;-76
2022/06/04 05:56:11;;;;;;;3.65;3.08;;;15.80;99.90;;;;;;5006159;28;20036;-76
2022/06/04 05:58:37;;;;;;;4.18;3.55;;;15.90;99.90;;;;;;4988669;28;20556;-77
2022/06/04 06:01:03;;;;;;;4.38;3.45;;;15.90;99.90;;;;;;5004359;28;20046;-77
2022/06/04 06:03:28;;;;;;;4.22;3.47;;;16.00;99.90;;;;;;5003349;28;20441;-77
2022/06/04 06:05:58;;;;;;;4.13;3.60;;;16.00;99.90;;;;;;4987154;28;20112;-77
2022/06/04 06:08:24;;;;;;;3.65;3.33;;;16.00;99.90;;;;;;5005488;28;20382;-77
2022/06/04 06:10:49;;;;;;;5.30;3.47;;;15.90;99.90;;;;;;5009462;28;20172;-76
2022/06/04 06:13:15;;;;;;;5.13;3.25;;;16.00;99.90;;;;;;5008385;28;20022;-77
2022/06/04 06:15:41;;;;;;;4.20;3.42;;;16.10;99.90;;;;;;5005121;28;20073;-76
2022/06/04 06:18:08;;;;;;;3.83;3.03;;;16.00;99.90;;;;;;4987221;28;20052;-76
2022/06/04 06:20:35;;;;;;;3.72;3.28;;;16.00;99.90;;;;;;5005758;28;20088;-76
2022/06/04 06:23:01;;;;;;;4.47;3.53;;;16.10;99.90;;;;;;5000934;28;20465;-76
2022/06/04 06:25:28;;;;;;;3.70;3.30;;;16.20;99.90;;;;;;5004763;28;20533;-76
2022/06/04 06:27:55;;;;;;;4.03;3.38;;;16.30;99.90;;;;;;5004834;28;20064;-76
2022/06/04 06:30:20;;;;;;;5.25;3.58;;;16.30;99.90;;;;;;4997742;28;20065;-77
2022/06/04 06:32:46;;;;;;;3.83;3.40;;;16.30;99.90;;;;;;5004631;28;20436;-77
2022/06/04 06:35:12;;;;;;;3.97;3.53;;;16.40;99.90;;;;;;5010402;28;20488;-76
2022/06/04 06:37:38;;;;;;;4.47;3.53;;;16.30;99.90;;;;;;5002474;28;20117;-76
2022/06/04 06:40:05;;;;;;;3.03;2.58;;;16.20;99.90;;;;;;5002766;28;20479;-77
2022/06/04 06:42:30;;;;;;;5.05;3.58;;;16.10;99.90;;;;;;5003600;28;20026;-77
2022/06/04 06:44:56;;;;;;;3.65;3.25;;;16.00;99.90;;;;;;5002240;28;20041;-77
2022/06/04 06:47:22;;;;;;;6.00;4.00;;;16.00;99.90;;;;;;5003012;28;20400;-76
2022/06/04 06:49:48;;;;;;;4.22;3.58;;;16.10;99.90;;;;;;4997964;28;20449;-76
2022/06/04 06:52:16;;;;;;;3.88;3.58;;;16.20;99.90;;;;;;5000315;28;20053;-76
2022/06/04 06:54:43;;;;;;;5.35;4.03;;;16.30;99.90;;;;;;5001670;28;20026;-76
2022/06/04 06:57:11;;;;;;;4.18;3.55;;;16.30;99.90;;;;;;5002082;28;20073;-77
2022/06/04 06:59:40;;;;;;;3.50;3.20;;;16.40;99.90;;;;;;4998349;28;20026;-76
2022/06/04 07:02:06;;;;;;;4.70;3.47;;;16.50;99.90;;;;;;4994207;28;20478;-76
2022/06/04 07:04:32;;;;;;;3.35;3.05;;;16.50;99.90;;;;;;5002965;28;20097;-76
2022/06/04 07:07:02;;;;;;;5.88;3.33;;;16.60;99.90;;;;;;4999167;28;20090;-76
2022/06/04 07:09:36;;;;;;;4.65;3.25;;;16.70;99.90;;;;;;5003146;28;20053;-75
2022/06/04 07:12:04;;;;;;;3.55;3.17;;;16.70;99.90;;;;;;5003687;28;20622;-77
2022/06/04 07:14:30;;;;;;;3.47;3.17;;;16.70;99.90;;;;;;5001489;28;20050;-77
2022/06/04 07:16:58;;;;;;;3.53;3.22;;;16.80;99.90;;;;;;5003339;28;20080;-77
2022/06/04 07:19:25;;;;;;;3.72;3.42;;;16.90;99.90;;;;;;5003776;28;20056;-76
2022/06/04 07:21:53;;;;;;;4.03;3.10;;;17.00;99.90;;;;;;5001398;28;20072;-76
2022/06/04 07:24:19;;;;;;;3.83;3.13;;;17.30;99.90;;;;;;5000990;28;20084;-77
2022/06/04 07:26:45;;;;;;;4.78;3.22;;;17.60;99.90;;;;;;5005882;28;20042;-77
2022/06/04 07:29:13;;;;;;;4.10;2.92;;;18.00;99.90;;;;;;4999392;28;20120;-77
2022/06/04 07:31:39;;;;;;;3.47;3.17;;;18.40;99.90;;;;;;5000591;28;20130;-77
2022/06/04 07:34:05;;;;;;;3.08;2.85;;;18.40;99.90;;;;;;4998189;28;20124;-76
2022/06/04 07:36:37;;;;;;;3.47;2.80;;;18.70;99.90;;;;;;4997884;28;20038;-77
2022/06/04 07:39:05;;;;;;;2.40;2.20;;;19.00;99.90;;;;;;5003541;28;20058;-78
2022/06/04 07:41:38;;;;;;;2.00;1.88;;;19.50;99.90;;;;;;4986400;28;20030;-78
2022/06/04 07:44:05;;;;;;;3.53;2.40;;;19.40;99.90;;;;;;5001460;28;20565;-77
2022/06/04 07:46:31;;;;;;;3.80;2.93;;;19.20;99.90;;;;;;4999396;28;20022;-78
2022/06/04 07:49:03;;;;;;;3.42;2.83;;;19.20;99.90;;;;;;5002340;28;20677;-77
2022/06/04 07:51:30;;;;;;;5.07;2.50;;;19.20;99.90;;;;;;5000577;28;20041;-78
2022/06/04 07:53:56;;;;;;;3.17;2.50;;;19.20;99.90;;;;;;5004741;28;20029;-78
2022/06/04 07:56:23;;;;;;;2.97;1.98;;;19.10;99.90;;;;;;5000810;28;20065;-77
2022/06/04 07:58:49;;;;;;;2.95;2.22;;;19.10;99.90;;;;;;5005453;28;20046;-77
2022/06/04 08:01:17;;;;;;;3.92;2.50;;;19.20;99.90;;;;;;5006104;28;20461;-78
2022/06/04 08:03:45;;;;;;;2.47;2.20;;;19.20;99.90;;;;;;5002079;28;20121;-78
2022/06/04 08:06:13;;;;;;;4.75;2.55;;;19.10;99.90;;;;;;5002195;28;20026;-78
2022/06/04 08:08:39;;;;;;;2.58;2.10;;;19.10;99.90;;;;;;5006083;28;20079;-78
2022/06/04 08:11:30;;;;;;;2.38;2.10;;;19.20;99.90;;;;;;4988761;28;20042;-78
2022/06/04 08:13:51;;;;;;;3.30;2.40;;;19.20;99.90;;;;;;5005570;28;20062;-77
2022/06/04 08:16:17;;;;;;;3.20;2.90;;;19.10;99.90;;;;;;5005135;28;20489;-77
2022/06/04 08:18:43;;;;;;;3.45;2.25;;;19.00;99.90;;;;;;5004938;28;20050;-78
2022/06/04 08:21:09;;;;;;;4.03;2.40;;;19.10;99.90;;;;;;5004669;28;20037;-77
2022/06/04 08:23:35;;;;;;;2.67;2.47;;;19.10;99.90;;;;;;5008755;28;20057;-78
2022/06/04 08:26:01;;;;;;;2.63;2.42;;;19.20;99.90;;;;;;5009205;28;20429;-77
2022/06/04 08:28:27;;;;;;;4.50;2.30;;;19.30;99.90;;;;;;5001633;28;20168;-78
2022/06/04 08:31:02;;;;;;;2.85;2.63;;;19.40;99.90;;;;;;5003596;28;20446;-78
2022/06/04 08:33:28;;;;;;;5.15;2.35;;;19.60;99.90;;;;;;5002221;28;20172;-77
2022/06/04 08:35:54;;;;;;;4.10;2.53;;;19.80;99.90;;;;;;4988317;28;20481;-76
2022/06/04 08:38:20;;;;;;;2.55;2.20;;;19.90;99.90;;;;;;5007280;28;20072;-78
2022/06/04 08:40:52;;;;;;;2.35;1.70;;;20.10;99.90;;;;;;5002065;28;20033;-77
2022/06/04 08:43:31;;;;;;;3.67;2.50;;;19.90;99.90;;;;;;5006597;28;20087;-78
2022/06/04 08:46:00;;;;;;;2.47;2.20;;;20.20;99.90;;;;;;5005941;28;20048;-78
2022/06/04 08:48:37;;;;;;;3.67;2.40;;;20.70;99.90;;;;;;5006165;28;20116;-78
2022/06/04 08:51:23;;;;;;;2.50;2.20;;;21.30;99.90;;;;;;5006007;28;20080;-77
2022/06/04 08:53:54;;;;;;;4.63;3.78;;;21.50;99.90;;;;;;5005893;28;20043;-77
2022/06/04 08:59:35;;;;;;;2.80;2.50;;;21.50;99.90;;;;;;5008105;28;20114;-78
2022/06/04 09:02:04;;;;;;;3.47;2.65;;;21.40;99.90;;;;;;5008326;28;20128;-77
2022/06/04 09:04:48;;;;;;;3.88;3.13;;;21.30;99.90;;;;;;5003818;28;20033;-77
2022/06/04 09:07:22;;;;;;;5.50;3.28;;;21.70;99.90;;;;;;5003106;28;20029;-77
2022/06/04 09:10:13;;;;;;;3.83;3.38;;;22.20;99.90;;;;;;5007644;28;20565;-77
2022/06/04 09:12:54;;;;;;;3.80;2.67;;;22.00;99.90;;;;;;4985702;28;20103;-77
2022/06/04 09:15:42;;;;;;;3.38;3.03;;;22.40;99.90;;;;;;5003860;28;20029;-76
2022/06/04 09:18:23;;;;;;;3.63;3.22;;;22.60;99.90;;;;;;5006516;28;20069;-78
2022/06/04 09:20:54;;;;;;;4.22;3.28;;;22.70;99.90;;;;;;5004524;28;20037;-78
2022/06/04 09:23:35;;;;;;;3.88;3.25;;;23.00;99.90;;;;;;5007648;28;20065;-77
2022/06/04 09:26:21;;;;;;;3.75;3.22;;;23.20;99.90;;;;;;5007954;28;20049;-77
2022/06/04 09:29:12;;;;;;;3.63;3.28;;;23.50;99.90;;;;;;5007002;28;20084;-78
2022/06/04 09:31:56;;;;;;;6.38;3.08;;;23.60;99.90;;;;;;5004850;28;20057;-78
2022/06/04 09:34:38;;;;;;;5.65;3.30;;;23.30;99.90;;;;;;5008903;28;20033;-78
2022/06/04 09:37:07;;;;;;;6.22;4.00;;;22.80;99.90;;;;;;5009288;28;20520;-78
2022/06/04 09:39:38;;;;;;;3.42;2.92;;;22.30;99.90;;;;;;5009892;28;20031;-78
2022/06/04 09:42:24;;;;;;;3.30;3.00;;;22.40;99.90;;;;;;5007080;28;20036;-78
2022/06/04 09:44:56;;;;;;;3.63;3.20;;;22.80;99.90;;;;;;5009495;28;20041;-78
2022/06/04 09:47:39;;;;;;;7.78;3.78;;;23.10;99.90;;;;;;5009635;28;20132;-78
2022/06/04 09:50:20;;;;;;;5.63;3.53;;;23.30;99.90;;;;;;4973985;28;20095;-78
2022/06/04 09:52:56;;;;;;;4.85;3.53;;;22.50;99.90;;;;;;5010535;28;20045;-78
2022/06/04 09:55:24;;;;;;;5.72;3.58;;;22.20;99.90;;;;;;5013223;28;20755;-79
2022/06/04 09:57:57;;;;;;;5.00;3.67;;;22.30;99.90;;;;;;5009452;28;20486;-78
2022/06/04 10:00:35;;;;;;;5.22;3.80;;;22.20;99.90;;;;;;5011081;28;20042;-78
2022/06/04 10:03:09;;;;;;;3.85;3.45;;;22.50;99.90;;;;;;5006980;28;20054;-79
2022/06/04 10:05:35;;;;;;;4.72;3.28;;;22.50;99.90;;;;;;5007192;28;20104;-79
2022/06/04 10:08:13;;;;;;;4.28;3.80;;;23.00;99.90;;;;;;5007634;28;20053;-79
2022/06/04 10:10:43;;;;;;;4.05;3.17;;;23.90;99.90;;;;;;4994220;28;20042;-78
2022/06/04 10:15:57;;;;;;;4.93;3.05;;;24.50;99.90;;;;;;5015876;28;20571;-78
2022/06/04 10:18:27;;;;;;;4.00;2.97;;;24.90;99.90;;;;;;5014230;28;20050;-77
2022/06/04 10:21:02;;;;;;;4.07;3.40;;;25.30;99.90;;;;;;5011009;28;20034;-79
2022/06/04 10:23:30;;;;;;;8.73;3.47;;;25.70;97.10;;;;;;5015948;28;20037;-78
2022/06/04 10:26:07;;;;;;;3.80;3.17;;;25.60;93.30;;;;;;5007524;28;20460;-78
2022/06/04 10:28:56;;;;;;;4.82;3.53;;;24.50;97.30;;;;;;4991328;28;20042;-77
2022/06/04 10:31:40;;;;;;;5.72;3.30;;;25.10;96.10;;;;;;4984347;28;20029;-78
2022/06/04 10:34:26;;;;;;;3.83;3.05;;;25.30;99.90;;;;;;4993967;28;20034;-78
2022/06/04 10:37:29;;;;;;;6.28;3.63;;;24.90;95.00;;;;;;5012333;28;20030;-77
2022/06/04 10:40:23;;;;;;;5.30;3.63;;;24.70;97.00;;;;;;5000336;28;20154;-78
2022/06/04 10:43:12;;;;;;;4.80;3.30;;;24.80;98.90;;;;;;5007974;28;20219;-78
2022/06/04 10:45:50;;;;;;;3.80;3.42;;;24.80;98.10;;;;;;5008708;28;20034;-78
2022/06/04 10:48:38;;;;;;;6.13;3.22;;;24.50;99.80;;;;;;5007408;28;20030;-78
2022/06/04 10:51:29;;;;;;;5.00;3.58;;;24.60;99.90;;;;;;5008820;28;20117;-79
2022/06/04 10:54:13;;;;;;;4.55;3.42;;;24.40;97.30;;;;;;5009394;28;20073;-79
2022/06/04 10:56:40;;;;;;;4.93;3.55;;;23.70;99.90;;;;;;5009035;28;20100;-81
2022/06/04 10:59:18;;;;;;;5.72;3.88;;;23.90;99.70;;;;;;5007180;28;20113;-81
2022/06/04 11:01:48;;;;;;;6.95;3.40;;;23.90;99.90;;;;;;5004256;28;20112;-78
2022/06/04 11:04:29;;;;;;;5.90;3.85;;;23.80;99.90;;;;;;5005434;28;20504;-77
2022/06/04 11:06:59;;;;;;;4.85;3.78;;;23.80;99.90;;;;;;5004860;28;20660;-78
2022/06/04 11:09:40;;;;;;;5.18;3.50;;;23.60;99.90;;;;;;5009632;28;20462;-78
2022/06/04 11:12:26;;;;;;;4.35;3.38;;;24.00;99.90;;;;;;5009434;28;20048;-77
2022/06/04 11:14:56;;;;;;;3.95;3.65;;;24.20;99.90;;;;;;5008791;28;20026;-76
2022/06/04 11:17:24;;;;;;;4.25;3.63;;;24.40;99.20;;;;;;5006500;28;20050;-74
2022/06/04 11:20:08;;;;;;;4.43;3.55;;;24.50;99.90;;;;;;5001526;28;20720;-75
2022/06/04 11:22:40;;;;;;;5.70;3.88;;;24.10;98.30;;;;;;4987868;28;20560;-76
2022/06/04 11:25:29;;;;;;;4.13;3.63;;;23.90;98.10;;;;;;5005424;28;20036;-76
2022/06/04 11:27:59;;;;;;;5.47;3.80;;;23.80;99.90;;;;;;5006647;28;20093;-76
2022/06/04 11:30:57;;;;;;;4.03;3.55;;;24.00;99.10;;;;;;5008420;28;20548;-75
2022/06/04 11:33:30;;;;;;;;;;;24.30;95.80;;;;;;5006828;28;20413;-75
2022/06/04 11:36:11;;;;;;;4.00;3.22;;;24.30;97.90;;;;;;5012520;28;19913;-76
2022/06/04 11:38:48;;;;;;;3.97;3.30;;;24.30;95.80;;;;;;4993172;28;20022;-77
2022/06/04 11:41:24;;;;;;;4.22;3.30;;;24.50;97.30;;;;;;4983076;28;20034;-76
2022/06/04 11:43:55;;;;;;;4.47;3.53;;;24.50;90.60;;;;;;5003221;28;20041;-76
2022/06/04 11:46:33;;;;;;;6.47;4.50;;;24.30;99.70;;;;;;4995518;28;20026;-76
2022/06/04 11:49:29;;;;;;;4.55;3.85;;;24.50;99.80;;;;;;5000698;28;20113;-77
2022/06/04 11:52:24;;;;;;;5.50;4.05;;;24.60;99.90;;;;;;4989627;28;20480;-76
2022/06/04 11:55:15;;;;;;;5.97;4.70;;;24.70;99.90;;;;;;4997119;28;20054;-76
2022/06/04 11:57:59;;;;;;;4.82;4.10;;;24.30;99.90;;;;;;4994088;28;20498;-75
2022/06/04 12:00:28;;;;;;;5.40;4.15;;;24.10;99.90;;;;;;5010067;28;20037;-75
2022/06/04 12:03:02;;;;;;;4.65;3.88;;;24.20;99.90;;;;;;5003667;28;20032;-75
2022/06/04 12:05:46;;;;;;;7.05;4.28;;;24.40;99.90;;;;;;5006654;28;20059;-75
2022/06/04 12:08:17;;;;;;;5.30;4.43;;;24.50;99.90;;;;;;5002596;28;20035;-76
2022/06/04 12:11:23;;;;;;;6.80;4.60;;;24.50;99.90;;;;;;5006701;28;20026;-75
2022/06/04 12:14:14;;;;;;;4.57;4.10;;;24.50;98.30;;;;;;5011637;28;20038;-75
2022/06/04 12:17:08;;;;;;;3.83;3.20;;;24.50;99.90;;;;;;5008782;28;20034;-75
2022/06/04 12:25:45;;;;;;;5.20;3.20;;;24.20;97.50;;;;;;5011204;28;20036;-76
2022/06/04 12:28:42;;;;;;;3.53;3.15;;;24.30;96.80;;;;;;5005126;28;20026;-77
2022/06/04 12:31:08;;;;;;;5.07;3.58;;;24.20;97.50;;;;;;4990371;28;20066;-78
2022/06/04 12:33:39;;;;;;;4.20;3.40;;;24.10;97.40;;;;;;5003912;28;20042;-76
2022/06/04 12:36:22;;;;;;;3.45;3.15;;;23.90;93.90;;;;;;5009933;28;20029;-76
2022/06/04 12:38:59;;;;;;;4.25;3.47;;;23.90;95.20;;;;;;5003029;28;20470;-79
2022/06/04 12:41:35;;;;;;;5.05;3.97;;;24.10;97.90;;;;;;4994640;28;20041;-80
2022/06/04 12:44:01;;;;;;;6.18;3.53;;;24.30;96.00;;;;;;5006700;28;20056;-80
2022/06/04 12:46:28;;;;;;;4.13;3.30;;;24.20;96.20;;;;;;5004866;28;20544;-80
2022/06/04 12:48:59;;;;;;;4.13;3.67;;;24.20;94.60;;;;;;4989965;28;20558;-80
2022/06/04 12:55:01;;;;;;;4.80;3.58;;;24.40;98.80;;;;;;4944537;28;20111;-80
2022/06/04 12:57:30;;;;;;;5.70;4.07;;;24.50;97.20;;;;;;5003767;28;20116;-81
2022/06/04 13:00:27;;;;;;;4.30;3.75;;;24.50;97.90;;;;;;5007295;28;20109;-81
2022/06/04 13:03:08;;;;;;;5.18;3.30;;;24.70;92.60;;;;;;4987681;28;20046;-81
2022/06/04 13:05:54;;;;;;;3.40;2.90;;;24.60;91.00;;;;;;5008792;28;20077;-83
2022/06/04 13:08:19;;;;;;;5.75;3.50;;;24.50;86.10;;;;;;5007438;28;20162;-80
2022/06/04 13:10:51;;;;;;;6.90;3.53;;;24.50;94.20;;;;;;5004821;28;20041;-81
2022/06/04 13:13:47;;;;;;;5.85;4.70;;;24.40;97.40;;;;;;5008647;28;20030;-76
2022/06/04 13:16:28;;;;;;;5.18;4.13;;;24.30;96.60;;;;;;5003811;28;20041;-79
2022/06/04 13:19:24;;;;;;;7.97;4.68;;;24.30;96.70;;;;;;5006283;28;20064;-79
2022/06/04 13:21:51;;;;;;;4.30;3.90;;;24.40;96.90;;;;;;4992633;28;20030;-80
2022/06/04 13:24:23;;;;;;;3.92;3.13;;;24.20;92.20;;;;;;5004260;28;20065;-79
2022/06/04 13:27:10;;;;;;;5.15;3.50;;;24.30;89.10;;;;;;5003554;28;20096;-79
2022/06/04 13:29:38;;;;;;;4.00;3.60;;;24.30;91.30;;;;;;5007039;28;20029;-81
2022/06/04 13:32:17;;;;;;;4.28;3.88;;;24.40;91.60;;;;;;4991274;28;20426;-80
2022/06/04 13:34:44;;;;;;;6.68;3.90;;;24.50;94.20;;;;;;5004491;28;20041;-80